sensor_id;sensor_type;location;lat;lon;timestamp;temperature;humidity
2611;DHT22;5612;51.134;17.058;2023-03-24T00:01:35;14.60;99.90
2611;DHT22;5612;51.134;17.058;2023-03-24T00:04:05;14.50;99.90
2611;DHT22;5612;51.134;17.058;2023-03-24T00:06:34;14.50;99.90
2611;DHT22;5612;51.134;17.058;2023-03-24T00:09:04;14.40;99.90
2611;DHT22;5612;51.134;17.058;2023-03-24T00:11:34;14.30;99.90
2611;DHT22;5612;51.134;17.058;2023-03-24T00:14:07;14.20;99.90
2611;DHT22;5612;51.134;17.058;2023-03-24T00:16:39;14.10;99.90
2611;DHT22;5612;51.134;17.058;2023-03-24T00:19:11;14.10;99.90
2611;DHT22;5612;51.134;17.058;2023-03-24T00:21:41;14.10;99.90
2611;DHT22;5612;51.134;17.058;2023-03-24T00:24:12;14.10;99.90
2611;DHT22;5612;51.134;17.058;2023-03-24T00:26:41;14.10;99.90
2611;DHT22;5612;51.134;17.058;2023-03-24T00:29:12;14.10;99.90
2611;DHT22;5612;51.134;17.058;2023-03-24T00:31:42;14.00;99.90
2611;DHT22;5612;51.134;17.058;2023-03-24T00:34:11;14.00;99.90
2611;DHT22;5612;51.134;17.058;2023-03-24T00:36:41;13.90;99.90
2611;DHT22;5612;51.134;17.058;2023-03-24T00:39:11;13.90;99.90
2611;DHT22;5612;51.134;17.058;2023-03-24T00:41:40;13.90;99.90
2611;DHT22;5612;51.134;17.058;2023-03-24T00:44:14;13.80;99.90
2611;DHT22;5612;51.134;17.058;2023-03-24T00:46:48;13.70;99.90
2611;DHT22;5612;51.134;17.058;2023-03-24T00:49:23;13.70;99.90
2611;DHT22;5612;51.134;17.058;2023-03-24T00:52:10;13.60;99.90
2611;DHT22;5612;51.134;17.058;2023-03-24T00:54:40;13.50;99.90
2611;DHT22;5612;51.134;17.058;2023-03-24T00:57:10;13.40;99.90
2611;DHT22;5612;51.134;17.058;2023-03-24T00:59:43;13.40;99.90
2611;DHT22;5612;51.134;17.058;2023-03-24T01:02:16;13.40;99.90
2611;DHT22;5612;51.134;17.058;2023-03-24T01:04:52;13.30;99.90
2611;DHT22;5612;51.134;17.058;2023-03-24T01:07:22;13.40;99.90
2611;DHT22;5612;51.134;17.058;2023-03-24T01:09:53;13.30;99.90
2611;DHT22;5612;51.134;17.058;2023-03-24T01:12:26;13.30;99.90
2611;DHT22;5612;51.134;17.058;2023-03-24T01:15:00;13.40;99.90
2611;DHT22;5612;51.134;17.058;2023-03-24T01:17:32;13.40;99.90
2611;DHT22;5612;51.134;17.058;2023-03-24T01:20:03;13.40;99.90
2611;DHT22;5612;51.134;17.058;2023-03-24T01:22:35;13.40;99.90
2611;DHT22;5612;51.134;17.058;2023-03-24T01:25:05;13.50;99.90
2611;DHT22;5612;51.134;17.058;2023-03-24T01:27:36;13.50;99.90
2611;DHT22;5612;51.134;17.058;2023-03-24T01:30:10;13.70;99.90
2611;DHT22;5612;51.134;17.058;2023-03-24T01:32:41;13.70;99.90
2611;DHT22;5612;51.134;17.058;2023-03-24T01:35:11;13.70;99.90
2611;DHT22;5612;51.134;17.058;2023-03-24T01:37:40;13.60;99.90
2611;DHT22;5612;51.134;17.058;2023-03-24T01:40:15;13.60;99.90
2611;DHT22;5612;51.134;17.058;2023-03-24T01:42:45;13.50;99.90
2611;DHT22;5612;51.134;17.058;2023-03-24T01:45:48;13.50;99.90
2611;DHT22;5612;51.134;17.058;2023-03-24T01:48:22;13.50;99.90
2611;DHT22;5612;51.134;17.058;2023-03-24T01:50:57;13.50;99.90
2611;DHT22;5612;51.134;17.058;2023-03-24T01:53:28;13.40;99.90
2611;DHT22;5612;51.134;17.058;2023-03-24T01:55:59;13.40;1.00
2611;DHT22;5612;51.134;17.058;2023-03-24T01:58:30;13.40;1.00
2611;DHT22;5612;51.134;17.058;2023-03-24T02:01:02;13.30;1.00
2611;DHT22;5612;51.134;17.058;2023-03-24T02:03:34;13.20;1.00
2611;DHT22;5612;51.134;17.058;2023-03-24T02:06:07;13.30;1.00
2611;DHT22;5612;51.134;17.058;2023-03-24T02:08:40;13.30;1.00
2611;DHT22;5612;51.134;17.058;2023-03-24T02:11:10;13.40;1.00
2611;DHT22;5612;51.134;17.058;2023-03-24T02:13:40;13.50;1.00
2611;DHT22;5612;51.134;17.058;2023-03-24T02:16:30;13.50;99.90
2611;DHT22;5612;51.134;17.058;2023-03-24T02:19:23;13.60;99.90
2611;DHT22;5612;51.134;17.058;2023-03-24T02:22:58;13.60;99.90
2611;DHT22;5612;51.134;17.058;2023-03-24T02:28:46;13.70;99.90
2611;DHT22;5612;51.134;17.058;2023-03-24T02:31:53;13.80;99.90
2611;DHT22;5612;51.134;17.058;2023-03-24T02:38:05;13.80;99.90
2611;DHT22;5612;51.134;17.058;2023-03-24T02:40:44;13.90;99.90
2611;DHT22;5612;51.134;17.058;2023-03-24T02:43:27;13.90;99.90
2611;DHT22;5612;51.134;17.058;2023-03-24T02:46:08;14.00;99.90
2611;DHT22;5612;51.134;17.058;2023-03-24T02:48:55;14.00;99.90
2611;DHT22;5612;51.134;17.058;2023-03-24T02:51:29;14.10;99.90
2611;DHT22;5612;51.134;17.058;2023-03-24T02:54:08;14.00;99.90
2611;DHT22;5612;51.134;17.058;2023-03-24T02:56:44;14.00;99.90
2611;DHT22;5612;51.134;17.058;2023-03-24T02:59:18;14.10;99.90
2611;DHT22;5612;51.134;17.058;2023-03-24T03:01:56;14.10;99.90
2611;DHT22;5612;51.134;17.058;2023-03-24T03:04:29;14.10;99.90
2611;DHT22;5612;51.134;17.058;2023-03-24T03:07:03;14.10;99.90
2611;DHT22;5612;51.134;17.058;2023-03-24T03:09:38;14.10;99.90
2611;DHT22;5612;51.134;17.058;2023-03-24T03:12:12;14.10;99.90
2611;DHT22;5612;51.134;17.058;2023-03-24T03:14:45;14.10;99.90
2611;DHT22;5612;51.134;17.058;2023-03-24T03:17:19;14.00;99.90
2611;DHT22;5612;51.134;17.058;2023-03-24T03:19:54;14.00;99.90
2611;DHT22;5612;51.134;17.058;2023-03-24T03:22:29;14.10;99.90
2611;DHT22;5612;51.134;17.058;2023-03-24T03:25:02;14.00;1.00
2611;DHT22;5612;51.134;17.058;2023-03-24T03:27:34;14.10;99.90
2611;DHT22;5612;51.134;17.058;2023-03-24T03:30:10;14.10;99.90
2611;DHT22;5612;51.134;17.058;2023-03-24T03:32:46;14.10;99.90
2611;DHT22;5612;51.134;17.058;2023-03-24T03:35:24;14.10;99.90
2611;DHT22;5612;51.134;17.058;2023-03-24T03:38:00;14.10;99.90
2611;DHT22;5612;51.134;17.058;2023-03-24T03:40:36;14.20;99.90
2611;DHT22;5612;51.134;17.058;2023-03-24T03:43:08;14.10;99.90
2611;DHT22;5612;51.134;17.058;2023-03-24T03:45:38;14.10;99.90
2611;DHT22;5612;51.134;17.058;2023-03-24T03:48:08;14.00;1.00
2611;DHT22;5612;51.134;17.058;2023-03-24T03:50:38;13.90;1.00
2611;DHT22;5612;51.134;17.058;2023-03-24T03:53:08;13.90;1.00
2611;DHT22;5612;51.134;17.058;2023-03-24T03:55:39;13.80;1.00
2611;DHT22;5612;51.134;17.058;2023-03-24T03:58:11;13.80;1.00
2611;DHT22;5612;51.134;17.058;2023-03-24T04:00:41;13.80;1.00
2611;DHT22;5612;51.134;17.058;2023-03-24T04:03:33;13.80;3.80
2611;DHT22;5612;51.134;17.058;2023-03-24T04:06:16;13.70;91.60
2611;DHT22;5612;51.134;17.058;2023-03-24T04:08:58;13.70;99.90
2611;DHT22;5612;51.134;17.058;2023-03-24T04:11:44;13.60;99.90
2611;DHT22;5612;51.134;17.058;2023-03-24T04:14:32;13.50;99.90
2611;DHT22;5612;51.134;17.058;2023-03-24T04:17:14;13.50;1.00
2611;DHT22;5612;51.134;17.058;2023-03-24T04:19:56;13.40;1.00
2611;DHT22;5612;51.134;17.058;2023-03-24T04:22:39;13.40;1.00
2611;DHT22;5612;51.134;17.058;2023-03-24T04:25:16;13.50;1.00
2611;DHT22;5612;51.134;17.058;2023-03-24T04:27:50;13.50;99.90
2611;DHT22;5612;51.134;17.058;2023-03-24T04:30:29;13.40;99.90
2611;DHT22;5612;51.134;17.058;2023-03-24T04:33:04;13.40;1.00
2611;DHT22;5612;51.134;17.058;2023-03-24T04:35:37;13.40;99.90
2611;DHT22;5612;51.134;17.058;2023-03-24T04:38:13;13.30;1.00
2611;DHT22;5612;51.134;17.058;2023-03-24T04:40:46;13.40;1.00
2611;DHT22;5612;51.134;17.058;2023-03-24T04:43:19;13.30;1.00
2611;DHT22;5612;51.134;17.058;2023-03-24T04:45:54;13.30;1.00
2611;DHT22;5612;51.134;17.058;2023-03-24T04:48:25;13.30;1.00
2611;DHT22;5612;51.134;17.058;2023-03-24T04:50:57;13.30;1.00
2611;DHT22;5612;51.134;17.058;2023-03-24T04:53:27;13.40;1.00
2611;DHT22;5612;51.134;17.058;2023-03-24T04:56:03;13.40;1.00
2611;DHT22;5612;51.134;17.058;2023-03-24T04:58:34;13.50;99.90
2611;DHT22;5612;51.134;17.058;2023-03-24T05:01:06;13.50;1.00
2611;DHT22;5612;51.134;17.058;2023-03-24T05:03:36;13.40;1.00
2611;DHT22;5612;51.134;17.058;2023-03-24T05:06:08;13.40;1.00
2611;DHT22;5612;51.134;17.058;2023-03-24T05:08:38;13.40;1.00
2611;DHT22;5612;51.134;17.058;2023-03-24T05:11:08;13.40;1.00
2611;DHT22;5612;51.134;17.058;2023-03-24T05:13:38;13.40;1.00
2611;DHT22;5612;51.134;17.058;2023-03-24T05:16:09;13.40;99.90
2611;DHT22;5612;51.134;17.058;2023-03-24T05:18:39;13.40;99.90
2611;DHT22;5612;51.134;17.058;2023-03-24T05:21:09;13.40;1.00
2611;DHT22;5612;51.134;17.058;2023-03-24T05:23:38;13.50;99.90
2611;DHT22;5612;51.134;17.058;2023-03-24T05:26:08;13.50;99.90
2611;DHT22;5612;51.134;17.058;2023-03-24T05:28:38;13.60;99.90
2611;DHT22;5612;51.134;17.058;2023-03-24T05:31:09;13.70;99.90
2611;DHT22;5612;51.134;17.058;2023-03-24T05:33:39;13.60;37.60
2611;DHT22;5612;51.134;17.058;2023-03-24T05:36:10;13.70;1.00
2611;DHT22;5612;51.134;17.058;2023-03-24T05:38:40;13.80;1.00
2611;DHT22;5612;51.134;17.058;2023-03-24T05:41:09;13.80;1.00
2611;DHT22;5612;51.134;17.058;2023-03-24T05:43:39;13.90;1.00
2611;DHT22;5612;51.134;17.058;2023-03-24T05:46:10;14.00;1.00
2611;DHT22;5612;51.134;17.058;2023-03-24T05:48:40;14.00;1.00
2611;DHT22;5612;51.134;17.058;2023-03-24T05:51:09;14.00;1.00
2611;DHT22;5612;51.134;17.058;2023-03-24T05:53:38;14.10;1.00
2611;DHT22;5612;51.134;17.058;2023-03-24T05:56:09;14.20;1.00
2611;DHT22;5612;51.134;17.058;2023-03-24T05:58:39;14.20;99.90
2611;DHT22;5612;51.134;17.058;2023-03-24T06:01:13;14.10;1.00
2611;DHT22;5612;51.134;17.058;2023-03-24T06:03:45;14.20;1.00
2611;DHT22;5612;51.134;17.058;2023-03-24T06:06:16;14.10;1.00
2611;DHT22;5612;51.134;17.058;2023-03-24T06:08:45;14.20;99.90
2611;DHT22;5612;51.134;17.058;2023-03-24T06:11:14;14.30;99.90
2611;DHT22;5612;51.134;17.058;2023-03-24T06:13:44;14.30;1.00
2611;DHT22;5612;51.134;17.058;2023-03-24T06:16:15;14.40;99.90
2611;DHT22;5612;51.134;17.058;2023-03-24T06:18:50;14.30;99.90
2611;DHT22;5612;51.134;17.058;2023-03-24T06:21:21;14.40;99.90
2611;DHT22;5612;51.134;17.058;2023-03-24T06:24:01;14.50;99.90
2611;DHT22;5612;51.134;17.058;2023-03-24T06:26:31;14.60;99.90
2611;DHT22;5612;51.134;17.058;2023-03-24T06:29:00;14.70;99.90
2611;DHT22;5612;51.134;17.058;2023-03-24T06:31:34;14.70;99.90
2611;DHT22;5612;51.134;17.058;2023-03-24T06:34:04;14.60;99.90
2611;DHT22;5612;51.134;17.058;2023-03-24T06:36:34;14.70;99.90
2611;DHT22;5612;51.134;17.058;2023-03-24T06:39:04;14.80;99.90
2611;DHT22;5612;51.134;17.058;2023-03-24T06:41:34;14.80;99.90
2611;DHT22;5612;51.134;17.058;2023-03-24T06:44:04;14.90;99.90
2611;DHT22;5612;51.134;17.058;2023-03-24T06:46:36;15.00;99.90
2611;DHT22;5612;51.134;17.058;2023-03-24T06:49:05;15.10;99.90
2611;DHT22;5612;51.134;17.058;2023-03-24T06:51:35;15.20;99.90
2611;DHT22;5612;51.134;17.058;2023-03-24T06:54:06;15.40;99.90
2611;DHT22;5612;51.134;17.058;2023-03-24T06:56:35;15.40;99.90
2611;DHT22;5612;51.134;17.058;2023-03-24T06:59:05;15.50;99.90
2611;DHT22;5612;51.134;17.058;2023-03-24T07:01:37;15.40;99.90
2611;DHT22;5612;51.134;17.058;2023-03-24T07:04:07;15.50;99.90
2611;DHT22;5612;51.134;17.058;2023-03-24T07:06:37;15.60;99.90
2611;DHT22;5612;51.134;17.058;2023-03-24T07:09:29;15.50;99.90
2611;DHT22;5612;51.134;17.058;2023-03-24T07:11:59;15.30;99.90
2611;DHT22;5612;51.134;17.058;2023-03-24T07:14:30;15.20;99.90
2611;DHT22;5612;51.134;17.058;2023-03-24T07:17:01;15.40;99.90
2611;DHT22;5612;51.134;17.058;2023-03-24T07:19:30;15.40;99.90
2611;DHT22;5612;51.134;17.058;2023-03-24T07:22:00;15.40;99.90
2611;DHT22;5612;51.134;17.058;2023-03-24T07:24:30;15.50;99.90
2611;DHT22;5612;51.134;17.058;2023-03-24T07:26:59;15.70;99.90
2611;DHT22;5612;51.134;17.058;2023-03-24T07:29:28;15.60;99.90
2611;DHT22;5612;51.134;17.058;2023-03-24T07:31:58;15.50;1.00
2611;DHT22;5612;51.134;17.058;2023-03-24T07:34:30;15.40;1.00
2611;DHT22;5612;51.134;17.058;2023-03-24T07:37:00;15.30;1.00
2611;DHT22;5612;51.134;17.058;2023-03-24T07:39:30;15.30;1.00
2611;DHT22;5612;51.134;17.058;2023-03-24T07:42:00;15.20;1.00
2611;DHT22;5612;51.134;17.058;2023-03-24T07:44:32;15.20;1.00
2611;DHT22;5612;51.134;17.058;2023-03-24T07:47:04;15.20;1.00
2611;DHT22;5612;51.134;17.058;2023-03-24T07:49:37;15.30;1.00
2611;DHT22;5612;51.134;17.058;2023-03-24T07:52:07;15.30;1.00
2611;DHT22;5612;51.134;17.058;2023-03-24T07:54:37;15.30;1.00
2611;DHT22;5612;51.134;17.058;2023-03-24T07:57:06;15.40;1.00
2611;DHT22;5612;51.134;17.058;2023-03-24T07:59:37;15.30;1.00
2611;DHT22;5612;51.134;17.058;2023-03-24T08:04:45;15.20;98.60
2611;DHT22;5612;51.134;17.058;2023-03-24T08:07:18;15.10;92.50
2611;DHT22;5612;51.134;17.058;2023-03-24T08:09:48;15.10;99.90
2611;DHT22;5612;51.134;17.058;2023-03-24T08:12:17;15.10;99.90
2611;DHT22;5612;51.134;17.058;2023-03-24T08:14:47;15.10;99.90
2611;DHT22;5612;51.134;17.058;2023-03-24T08:17:17;15.10;99.90
2611;DHT22;5612;51.134;17.058;2023-03-24T08:19:48;15.00;99.90
2611;DHT22;5612;51.134;17.058;2023-03-24T08:22:27;15.00;99.90
2611;DHT22;5612;51.134;17.058;2023-03-24T08:24:57;15.10;99.90
2611;DHT22;5612;51.134;17.058;2023-03-24T08:27:26;15.20;99.90
2611;DHT22;5612;51.134;17.058;2023-03-24T08:29:56;15.50;1.00
2611;DHT22;5612;51.134;17.058;2023-03-24T08:32:26;15.80;1.00
2611;DHT22;5612;51.134;17.058;2023-03-24T08:34:58;16.20;99.90
2611;DHT22;5612;51.134;17.058;2023-03-24T08:37:28;16.80;99.90
2611;DHT22;5612;51.134;17.058;2023-03-24T08:39:57;17.50;99.90
2611;DHT22;5612;51.134;17.058;2023-03-24T08:42:32;18.50;75.50
2611;DHT22;5612;51.134;17.058;2023-03-24T08:45:01;19.10;1.00
2611;DHT22;5612;51.134;17.058;2023-03-24T08:47:31;19.70;1.00
2611;DHT22;5612;51.134;17.058;2023-03-24T08:50:03;19.80;1.00
2611;DHT22;5612;51.134;17.058;2023-03-24T08:52:33;19.40;1.00
2611;DHT22;5612;51.134;17.058;2023-03-24T08:55:04;18.80;1.00
2611;DHT22;5612;51.134;17.058;2023-03-24T08:57:34;18.60;1.00
2611;DHT22;5612;51.134;17.058;2023-03-24T09:00:05;18.20;2.60
2611;DHT22;5612;51.134;17.058;2023-03-24T09:02:41;17.90;20.60
2611;DHT22;5612;51.134;17.058;2023-03-24T09:05:13;17.90;28.80
2611;DHT22;5612;51.134;17.058;2023-03-24T09:07:51;17.60;53.40
2611;DHT22;5612;51.134;17.058;2023-03-24T09:10:21;17.60;44.80
2611;DHT22;5612;51.134;17.058;2023-03-24T09:12:50;17.80;60.60
2611;DHT22;5612;51.134;17.058;2023-03-24T09:15:20;17.70;39.30
2611;DHT22;5612;51.134;17.058;2023-03-24T09:17:50;17.80;27.60
2611;DHT22;5612;51.134;17.058;2023-03-24T09:20:21;17.70;37.90
2611;DHT22;5612;51.134;17.058;2023-03-24T09:22:50;17.70;47.60
2611;DHT22;5612;51.134;17.058;2023-03-24T09:25:20;17.70;26.70
2611;DHT22;5612;51.134;17.058;2023-03-24T09:27:50;17.50;33.00
2611;DHT22;5612;51.134;17.058;2023-03-24T09:30:20;17.30;65.00
2611;DHT22;5612;51.134;17.058;2023-03-24T09:32:50;17.50;79.70
2611;DHT22;5612;51.134;17.058;2023-03-24T09:35:21;17.80;86.40
2611;DHT22;5612;51.134;17.058;2023-03-24T09:37:51;18.00;58.60
2611;DHT22;5612;51.134;17.058;2023-03-24T09:40:24;18.20;26.70
2611;DHT22;5612;51.134;17.058;2023-03-24T09:42:59;18.30;11.80
2611;DHT22;5612;51.134;17.058;2023-03-24T09:45:32;18.30;15.10
2611;DHT22;5612;51.134;17.058;2023-03-24T09:48:06;18.20;14.50
2611;DHT22;5612;51.134;17.058;2023-03-24T09:50:48;18.20;12.90
2611;DHT22;5612;51.134;17.058;2023-03-24T09:53:27;18.00;19.90
2611;DHT22;5612;51.134;17.058;2023-03-24T09:56:05;18.10;31.30
2611;DHT22;5612;51.134;17.058;2023-03-24T09:58:37;18.00;29.50
2611;DHT22;5612;51.134;17.058;2023-03-24T10:01:12;17.90;41.70
2611;DHT22;5612;51.134;17.058;2023-03-24T10:03:43;17.90;32.40
2611;DHT22;5612;51.134;17.058;2023-03-24T10:06:20;17.90;34.90
2611;DHT22;5612;51.134;17.058;2023-03-24T10:09:03;18.10;10.30
2611;DHT22;5612;51.134;17.058;2023-03-24T10:11:40;18.10;5.10
2611;DHT22;5612;51.134;17.058;2023-03-24T10:14:20;18.10;1.00
2611;DHT22;5612;51.134;17.058;2023-03-24T10:16:58;18.30;1.00
2611;DHT22;5612;51.134;17.058;2023-03-24T10:19:37;18.30;1.00
2611;DHT22;5612;51.134;17.058;2023-03-24T10:22:16;18.50;1.00
2611;DHT22;5612;51.134;17.058;2023-03-24T10:24:52;18.80;1.00
2611;DHT22;5612;51.134;17.058;2023-03-24T10:27:27;19.20;1.00
2611;DHT22;5612;51.134;17.058;2023-03-24T10:30:03;19.50;1.00
2611;DHT22;5612;51.134;17.058;2023-03-24T10:32:36;19.70;1.00
2611;DHT22;5612;51.134;17.058;2023-03-24T10:35:07;20.00;1.00
2611;DHT22;5612;51.134;17.058;2023-03-24T10:37:45;20.20;1.00
2611;DHT22;5612;51.134;17.058;2023-03-24T10:40:17;20.20;1.00
2611;DHT22;5612;51.134;17.058;2023-03-24T10:42:49;20.30;1.00
2611;DHT22;5612;51.134;17.058;2023-03-24T10:45:38;20.30;1.00
2611;DHT22;5612;51.134;17.058;2023-03-24T10:48:11;20.20;1.00
2611;DHT22;5612;51.134;17.058;2023-03-24T10:50:42;20.10;1.00
2611;DHT22;5612;51.134;17.058;2023-03-24T10:53:19;20.20;1.00
2611;DHT22;5612;51.134;17.058;2023-03-24T10:55:49;20.00;1.00
2611;DHT22;5612;51.134;17.058;2023-03-24T10:58:27;19.80;1.00
2611;DHT22;5612;51.134;17.058;2023-03-24T11:00:58;19.60;1.00
2611;DHT22;5612;51.134;17.058;2023-03-24T11:03:31;19.40;1.00
2611;DHT22;5612;51.134;17.058;2023-03-24T11:06:04;19.20;1.00
2611;DHT22;5612;51.134;17.058;2023-03-24T11:08:38;19.00;1.00
2611;DHT22;5612;51.134;17.058;2023-03-24T11:11:28;18.90;1.00
2611;DHT22;5612;51.134;17.058;2023-03-24T11:14:00;18.80;1.00
2611;DHT22;5612;51.134;17.058;2023-03-24T11:16:31;18.90;1.00
2611;DHT22;5612;51.134;17.058;2023-03-24T11:19:06;18.90;1.00
2611;DHT22;5612;51.134;17.058;2023-03-24T11:21:50;19.00;1.00
2611;DHT22;5612;51.134;17.058;2023-03-24T11:24:22;19.10;1.00
2611;DHT22;5612;51.134;17.058;2023-03-24T11:26:55;19.20;1.00
2611;DHT22;5612;51.134;17.058;2023-03-24T11:29:28;19.20;1.00
2611;DHT22;5612;51.134;17.058;2023-03-24T11:32:00;19.20;1.00
2611;DHT22;5612;51.134;17.058;2023-03-24T11:34:32;19.10;1.00
2611;DHT22;5612;51.134;17.058;2023-03-24T11:37:10;19.10;1.00
2611;DHT22;5612;51.134;17.058;2023-03-24T11:39:42;19.00;1.00
2611;DHT22;5612;51.134;17.058;2023-03-24T11:42:15;18.90;1.00
2611;DHT22;5612;51.134;17.058;2023-03-24T11:44:48;18.90;1.00
2611;DHT22;5612;51.134;17.058;2023-03-24T11:47:22;18.70;1.00
2611;DHT22;5612;51.134;17.058;2023-03-24T11:50:09;18.60;1.00
2611;DHT22;5612;51.134;17.058;2023-03-24T11:52:53;18.60;1.00
2611;DHT22;5612;51.134;17.058;2023-03-24T11:55:32;18.70;1.00
2611;DHT22;5612;51.134;17.058;2023-03-24T11:58:08;18.70;1.00
2611;DHT22;5612;51.134;17.058;2023-03-24T12:00:44;18.80;1.00
2611;DHT22;5612;51.134;17.058;2023-03-24T12:03:56;18.60;1.00
2611;DHT22;5612;51.134;17.058;2023-03-24T12:06:43;18.50;1.00
2611;DHT22;5612;51.134;17.058;2023-03-24T12:09:21;18.50;1.00
2611;DHT22;5612;51.134;17.058;2023-03-24T12:12:16;18.50;1.00
2611;DHT22;5612;51.134;17.058;2023-03-24T12:15:04;18.50;1.00
2611;DHT22;5612;51.134;17.058;2023-03-24T12:17:59;18.50;1.00
2611;DHT22;5612;51.134;17.058;2023-03-24T12:20:41;18.50;1.00
2611;DHT22;5612;51.134;17.058;2023-03-24T12:23:19;18.50;1.00
2611;DHT22;5612;51.134;17.058;2023-03-24T12:26:12;18.50;1.00
2611;DHT22;5612;51.134;17.058;2023-03-24T12:28:52;18.40;1.00
2611;DHT22;5612;51.134;17.058;2023-03-24T12:31:52;18.40;1.00
2611;DHT22;5612;51.134;17.058;2023-03-24T12:34:58;18.40;1.00
2611;DHT22;5612;51.134;17.058;2023-03-24T12:37:36;18.30;1.00
2611;DHT22;5612;51.134;17.058;2023-03-24T12:43:32;18.30;1.00
2611;DHT22;5612;51.134;17.058;2023-03-24T12:46:15;18.30;1.00
2611;DHT22;5612;51.134;17.058;2023-03-24T12:51:42;18.30;1.00
2611;DHT22;5612;51.134;17.058;2023-03-24T12:54:22;18.30;1.00
2611;DHT22;5612;51.134;17.058;2023-03-24T12:56:59;18.30;1.00
2611;DHT22;5612;51.134;17.058;2023-03-24T12:59:32;18.20;1.00
2611;DHT22;5612;51.134;17.058;2023-03-24T13:02:18;18.20;1.00
2611;DHT22;5612;51.134;17.058;2023-03-24T13:04:53;18.10;1.00
2611;DHT22;5612;51.134;17.058;2023-03-24T13:07:25;18.10;3.60
2611;DHT22;5612;51.134;17.058;2023-03-24T13:09:58;18.20;19.70
2611;DHT22;5612;51.134;17.058;2023-03-24T13:12:37;18.20;30.40
2611;DHT22;5612;51.134;17.058;2023-03-24T13:15:15;18.20;22.10
2611;DHT22;5612;51.134;17.058;2023-03-24T13:17:52;18.10;31.30
2611;DHT22;5612;51.134;17.058;2023-03-24T13:20:24;17.90;52.80
2611;DHT22;5612;51.134;17.058;2023-03-24T13:22:56;17.70;47.10
2611;DHT22;5612;51.134;17.058;2023-03-24T13:25:34;17.60;97.30
2611;DHT22;5612;51.134;17.058;2023-03-24T13:28:11;17.60;52.50
2611;DHT22;5612;51.134;17.058;2023-03-24T13:30:42;17.60;63.30
2611;DHT22;5612;51.134;17.058;2023-03-24T13:33:17;17.60;34.10
2611;DHT22;5612;51.134;17.058;2023-03-24T13:36:06;17.60;62.60
2611;DHT22;5612;51.134;17.058;2023-03-24T13:38:40;17.70;57.20
2611;DHT22;5612;51.134;17.058;2023-03-24T13:41:17;17.60;73.70
2611;DHT22;5612;51.134;17.058;2023-03-24T13:43:49;17.60;60.40
2611;DHT22;5612;51.134;17.058;2023-03-24T13:46:20;17.60;52.20
2611;DHT22;5612;51.134;17.058;2023-03-24T13:48:54;17.60;61.20
2611;DHT22;5612;51.134;17.058;2023-03-24T13:51:28;17.60;95.20
2611;DHT22;5612;51.134;17.058;2023-03-24T13:53:59;17.60;85.80
2611;DHT22;5612;51.134;17.058;2023-03-24T13:56:34;17.60;93.90
2611;DHT22;5612;51.134;17.058;2023-03-24T13:59:24;17.50;91.70
2611;DHT22;5612;51.134;17.058;2023-03-24T14:02:15;17.50;76.50
2611;DHT22;5612;51.134;17.058;2023-03-24T14:04:48;17.50;49.20
2611;DHT22;5612;51.134;17.058;2023-03-24T14:07:40;17.40;48.90
2611;DHT22;5612;51.134;17.058;2023-03-24T14:10:39;17.50;49.90
2611;DHT22;5612;51.134;17.058;2023-03-24T14:16:25;17.70;25.70
2611;DHT22;5612;51.134;17.058;2023-03-24T14:19:08;17.80;25.00
2611;DHT22;5612;51.134;17.058;2023-03-24T14:21:39;18.00;12.20
2611;DHT22;5612;51.134;17.058;2023-03-24T14:24:15;18.00;1.00
2611;DHT22;5612;51.134;17.058;2023-03-24T14:26:48;18.00;1.00
2611;DHT22;5612;51.134;17.058;2023-03-24T14:29:38;18.00;9.20
2611;DHT22;5612;51.134;17.058;2023-03-24T14:32:15;18.00;2.80
2611;DHT22;5612;51.134;17.058;2023-03-24T14:34:51;17.90;1.00
2611;DHT22;5612;51.134;17.058;2023-03-24T14:37:25;17.80;1.00
2611;DHT22;5612;51.134;17.058;2023-03-24T14:39:55;17.80;3.70
2611;DHT22;5612;51.134;17.058;2023-03-24T14:46:00;17.80;1.00
2611;DHT22;5612;51.134;17.058;2023-03-24T14:48:36;17.80;1.90
2611;DHT22;5612;51.134;17.058;2023-03-24T14:51:15;17.80;1.00
2611;DHT22;5612;51.134;17.058;2023-03-24T14:53:49;17.90;1.00
2611;DHT22;5612;51.134;17.058;2023-03-24T14:56:19;18.00;1.00
2611;DHT22;5612;51.134;17.058;2023-03-24T14:58:52;18.20;1.00
2611;DHT22;5612;51.134;17.058;2023-03-24T15:01:26;18.20;1.00
2611;DHT22;5612;51.134;17.058;2023-03-24T15:04:00;18.20;1.00
2611;DHT22;5612;51.134;17.058;2023-03-24T15:06:31;18.10;1.00
2611;DHT22;5612;51.134;17.058;2023-03-24T15:09:08;18.10;1.00
2611;DHT22;5612;51.134;17.058;2023-03-24T15:11:39;18.10;1.00
2611;DHT22;5612;51.134;17.058;2023-03-24T15:14:19;18.10;1.00
2611;DHT22;5612;51.134;17.058;2023-03-24T15:16:56;18.10;1.00
2611;DHT22;5612;51.134;17.058;2023-03-24T15:19:27;18.10;1.00
2611;DHT22;5612;51.134;17.058;2023-03-24T15:21:59;18.20;1.00
2611;DHT22;5612;51.134;17.058;2023-03-24T15:24:33;18.20;1.00
2611;DHT22;5612;51.134;17.058;2023-03-24T15:27:22;18.30;1.00
2611;DHT22;5612;51.134;17.058;2023-03-24T15:29:55;18.40;1.00
2611;DHT22;5612;51.134;17.058;2023-03-24T15:32:26;18.40;1.00
2611;DHT22;5612;51.134;17.058;2023-03-24T15:35:02;18.50;1.00
2611;DHT22;5612;51.134;17.058;2023-03-24T15:37:34;18.50;1.00
2611;DHT22;5612;51.134;17.058;2023-03-24T15:40:33;18.30;1.00
2611;DHT22;5612;51.134;17.058;2023-03-24T15:43:04;18.20;1.00
2611;DHT22;5612;51.134;17.058;2023-03-24T15:45:42;18.10;1.00
2611;DHT22;5612;51.134;17.058;2023-03-24T15:48:18;18.10;1.00
2611;DHT22;5612;51.134;17.058;2023-03-24T15:50:56;18.00;1.00
2611;DHT22;5612;51.134;17.058;2023-03-24T15:53:27;17.90;1.00
2611;DHT22;5612;51.134;17.058;2023-03-24T15:56:04;17.90;1.00
2611;DHT22;5612;51.134;17.058;2023-03-24T15:58:52;17.90;1.00
2611;DHT22;5612;51.134;17.058;2023-03-24T16:01:24;17.80;1.00
2611;DHT22;5612;51.134;17.058;2023-03-24T16:03:59;17.70;1.00
2611;DHT22;5612;51.134;17.058;2023-03-24T16:06:32;17.70;1.00
2611;DHT22;5612;51.134;17.058;2023-03-24T16:09:05;17.60;1.00
2611;DHT22;5612;51.134;17.058;2023-03-24T16:11:38;17.60;1.00
2611;DHT22;5612;51.134;17.058;2023-03-24T16:14:20;17.50;1.00
2611;DHT22;5612;51.134;17.058;2023-03-24T16:16:53;17.50;1.00
2611;DHT22;5612;51.134;17.058;2023-03-24T16:19:23;17.50;1.00
2611;DHT22;5612;51.134;17.058;2023-03-24T16:21:52;17.40;1.00
2611;DHT22;5612;51.134;17.058;2023-03-24T16:24:22;17.40;1.00
2611;DHT22;5612;51.134;17.058;2023-03-24T16:26:53;17.40;1.00
2611;DHT22;5612;51.134;17.058;2023-03-24T16:29:22;17.40;1.00
2611;DHT22;5612;51.134;17.058;2023-03-24T16:31:55;17.30;1.00
2611;DHT22;5612;51.134;17.058;2023-03-24T16:34:25;17.40;1.00
2611;DHT22;5612;51.134;17.058;2023-03-24T16:36:54;17.30;1.00
2611;DHT22;5612;51.134;17.058;2023-03-24T16:39:24;17.30;1.00
2611;DHT22;5612;51.134;17.058;2023-03-24T16:41:56;17.30;1.00
2611;DHT22;5612;51.134;17.058;2023-03-24T16:44:25;17.20;1.00
2611;DHT22;5612;51.134;17.058;2023-03-24T16:46:54;17.20;1.00
2611;DHT22;5612;51.134;17.058;2023-03-24T16:49:23;17.10;1.00
2611;DHT22;5612;51.134;17.058;2023-03-24T16:51:52;17.10;1.00
2611;DHT22;5612;51.134;17.058;2023-03-24T16:54:22;17.00;1.00
2611;DHT22;5612;51.134;17.058;2023-03-24T16:56:51;16.90;1.00
2611;DHT22;5612;51.134;17.058;2023-03-24T16:59:22;16.90;1.00
2611;DHT22;5612;51.134;17.058;2023-03-24T17:01:51;16.90;1.00
2611;DHT22;5612;51.134;17.058;2023-03-24T17:04:22;16.80;1.00